createdAt,value
2023-03-31T00:00:12.287Z,11.68
2023-03-31T00:04:32.482Z,11.73
2023-03-31T00:08:52.582Z,11.87
2023-03-31T00:13:08.916Z,11.95
2023-03-31T00:17:25.121Z,12.02
2023-03-31T00:21:42.957Z,12.12
2023-03-31T00:25:59.345Z,11.83
2023-03-31T00:30:15.974Z,11.86
2023-03-31T00:34:32.450Z,11.96
2023-03-31T00:38:49.265Z,11.94
2023-03-31T00:43:19.820Z,12.00
2023-03-31T00:47:39.791Z,11.94
2023-03-31T00:52:19.306Z,11.97
2023-03-31T00:56:39.671Z,11.89
2023-03-31T01:00:58.394Z,11.86
2023-03-31T01:05:15.478Z,11.78
2023-03-31T01:09:35.333Z,11.93
2023-03-31T01:13:53.143Z,12.13
2023-03-31T01:18:12.990Z,11.97
2023-03-31T01:22:54.693Z,11.80
2023-03-31T01:27:46.111Z,11.95
2023-03-31T01:32:26.963Z,11.81
2023-03-31T01:37:17.815Z,11.82
2023-03-31T01:41:56.015Z,11.76
2023-03-31T01:46:30.935Z,11.86
2023-03-31T01:50:52.349Z,11.87
2023-03-31T01:55:09.625Z,11.81
2023-03-31T01:59:40.592Z,11.76
2023-03-31T02:04:08.372Z,11.72
2023-03-31T02:08:29.977Z,11.59
2023-03-31T02:12:46.712Z,11.62
2023-03-31T02:17:04.496Z,11.70
2023-03-31T02:21:23.042Z,11.61
2023-03-31T02:25:58.089Z,11.46
2023-03-31T02:30:14.996Z,11.34
2023-03-31T02:34:31.256Z,11.38
2023-03-31T02:39:18.623Z,11.37
2023-03-31T02:43:34.866Z,11.27
2023-03-31T02:47:51.218Z,11.11
2023-03-31T02:52:29.610Z,11.44
2023-03-31T02:57:23.459Z,11.37
2023-03-31T03:01:39.553Z,11.19
2023-03-31T03:06:17.421Z,11.07
2023-03-31T03:11:08.109Z,10.90
2023-03-31T03:16:14.077Z,10.86
2023-03-31T03:20:34.122Z,10.84
2023-03-31T03:24:51.036Z,10.87
2023-03-31T03:29:07.346Z,10.48
2023-03-31T03:33:25.205Z,10.38
2023-03-31T03:37:41.465Z,10.80
2023-03-31T03:41:57.788Z,10.66
2023-03-31T03:46:14.265Z,10.65
2023-03-31T03:50:31.123Z,10.69
2023-03-31T03:54:47.315Z,10.44
2023-03-31T03:59:03.584Z,10.60
2023-03-31T04:03:19.999Z,10.49
2023-03-31T04:07:36.283Z,10.59
2023-03-31T04:11:52.433Z,10.58
2023-03-31T04:16:09.486Z,10.46
2023-03-31T04:20:30.895Z,10.43
2023-03-31T04:24:52.941Z,10.55
2023-03-31T04:29:10.783Z,10.53
2023-03-31T04:33:26.946Z,10.64
2023-03-31T04:37:43.201Z,10.81
2023-03-31T04:42:00.544Z,10.74
2023-03-31T04:46:17.351Z,10.63
2023-03-31T04:50:33.773Z,10.66
2023-03-31T04:54:49.969Z,10.58
2023-03-31T04:59:06.197Z,10.68
2023-03-31T05:03:22.706Z,10.74
2023-03-31T05:07:39.869Z,10.68
2023-03-31T05:11:56.946Z,10.87
2023-03-31T05:16:15.078Z,10.58
2023-03-31T05:20:31.379Z,10.95
2023-03-31T05:24:48.208Z,10.85
2023-03-31T05:29:04.602Z,10.74
2023-03-31T05:33:20.890Z,10.95
2023-03-31T05:37:37.178Z,11.12
2023-03-31T05:41:53.371Z,11.22
2023-03-31T05:46:10.075Z,11.24
2023-03-31T05:50:27.592Z,11.40
2023-03-31T05:54:44.550Z,11.54
2023-03-31T05:59:01.664Z,11.76
2023-03-31T06:03:17.876Z,12.06
2023-03-31T06:07:34.143Z,12.21
2023-03-31T06:11:50.732Z,12.23
2023-03-31T06:16:08.154Z,12.48
2023-03-31T06:20:27.707Z,12.66
2023-03-31T06:24:44.677Z,12.87
2023-03-31T06:29:01.045Z,12.84
2023-03-31T06:33:17.337Z,13.07
2023-03-31T06:37:33.663Z,13.19
2023-03-31T06:41:49.988Z,13.37
2023-03-31T06:46:08.078Z,13.51
2023-03-31T06:50:24.393Z,13.50
2023-03-31T06:54:42.649Z,13.30
2023-03-31T06:58:58.862Z,13.49
2023-03-31T07:03:19.005Z,13.72
2023-03-31T07:07:36.500Z,13.86
2023-03-31T07:11:53.116Z,14.22
2023-03-31T07:16:14.417Z,14.13
2023-03-31T07:20:31.231Z,14.24
2023-03-31T07:24:47.427Z,14.26
2023-03-31T07:29:03.732Z,14.22
2023-03-31T07:33:19.866Z,14.50
2023-03-31T07:37:43.812Z,14.62
2023-03-31T07:42:00.109Z,14.90
2023-03-31T07:46:19.487Z,15.36
2023-03-31T07:50:35.784Z,15.14
2023-03-31T07:54:52.045Z,15.38
2023-03-31T07:59:08.291Z,15.65
2023-03-31T08:03:24.516Z,15.92
2023-03-31T08:07:44.873Z,15.28
2023-03-31T08:12:01.176Z,15.17
2023-03-31T08:16:17.530Z,15.57
2023-03-31T08:20:34.115Z,15.74
2023-03-31T08:24:50.427Z,16.11
2023-03-31T08:29:06.809Z,16.35
2023-03-31T08:33:23.039Z,16.25
2023-03-31T08:37:40.136Z,16.63
2023-03-31T08:42:02.262Z,16.44
2023-03-31T08:46:19.684Z,16.70
2023-03-31T08:50:41.352Z,16.75
2023-03-31T08:55:00.274Z,16.72
2023-03-31T08:59:32.951Z,16.82
2023-03-31T09:03:58.651Z,16.88
2023-03-31T09:08:33.818Z,16.86
2023-03-31T09:13:07.315Z,17.60
2023-03-31T09:17:26.177Z,18.12
2023-03-31T09:21:56.107Z,18.01
2023-03-31T09:26:34.563Z,18.63
2023-03-31T09:30:51.033Z,18.67
2023-03-31T09:35:26.892Z,18.76
2023-03-31T09:39:43.353Z,19.07
2023-03-31T09:43:59.606Z,19.04
2023-03-31T09:48:20.785Z,19.50
2023-03-31T09:52:43.781Z,20.05
2023-03-31T09:57:00.311Z,20.52
2023-03-31T10:01:16.668Z,20.36
2023-03-31T10:05:36.847Z,20.18
2023-03-31T10:09:55.046Z,20.08
2023-03-31T10:14:15.907Z,20.42
2023-03-31T10:18:38.339Z,20.70
2023-03-31T10:22:54.500Z,20.15
2023-03-31T10:27:33.983Z,20.29
2023-03-31T10:31:50.201Z,20.66
2023-03-31T10:36:16.606Z,21.33
2023-03-31T10:40:33.906Z,21.20
2023-03-31T10:44:50.249Z,21.01
2023-03-31T10:49:21.976Z,20.40
2023-03-31T10:53:47.197Z,20.66
2023-03-31T10:58:25.754Z,20.06
2023-03-31T11:03:19.810Z,20.33
2023-03-31T11:07:38.741Z,20.70
2023-03-31T11:12:18.939Z,19.33
2023-03-31T11:16:50.405Z,19.58
2023-03-31T11:21:20.559Z,19.29
2023-03-31T11:25:50.224Z,19.20
2023-03-31T11:30:31.003Z,18.31
2023-03-31T11:35:09.562Z,18.69
2023-03-31T11:39:47.727Z,18.24
2023-03-31T11:44:15.792Z,18.05
2023-03-31T11:48:49.885Z,18.33
2023-03-31T11:53:21.376Z,18.43
2023-03-31T11:57:56.824Z,18.77
2023-03-31T12:02:18.933Z,19.38
2023-03-31T12:06:41.895Z,19.43
2023-03-31T12:11:09.755Z,19.52
2023-03-31T12:15:50.636Z,18.95
2023-03-31T12:20:30.064Z,19.61
2023-03-31T12:24:47.250Z,19.36
2023-03-31T12:29:30.240Z,18.47
2023-03-31T12:33:52.640Z,18.31
2023-03-31T12:38:34.504Z,18.97
2023-03-31T12:42:59.429Z,19.49
2023-03-31T12:47:15.561Z,19.43
2023-03-31T12:51:36.489Z,19.59
2023-03-31T12:55:59.280Z,19.95
2023-03-31T13:00:21.529Z,20.35
2023-03-31T13:04:38.686Z,19.65
2023-03-31T13:09:26.787Z,19.00
2023-03-31T13:14:00.314Z,18.90
2023-03-31T13:18:21.393Z,18.90
2023-03-31T13:22:41.083Z,17.93
2023-03-31T13:26:59.563Z,18.12
2023-03-31T13:31:16.317Z,17.95
2023-03-31T13:35:35.257Z,17.71
2023-03-31T13:40:22.570Z,18.02
2023-03-31T13:45:08.317Z,17.96
2023-03-31T13:50:04.264Z,17.80
2023-03-31T13:54:58.952Z,17.80
2023-03-31T13:59:55.440Z,17.47
2023-03-31T14:04:36.136Z,16.70
2023-03-31T14:09:01.351Z,16.86
2023-03-31T14:13:19.857Z,17.14
2023-03-31T14:17:38.912Z,17.43
2023-03-31T14:22:32.651Z,16.94
2023-03-31T14:27:13.740Z,16.11
2023-03-31T14:31:35.811Z,16.48
2023-03-31T14:36:02.037Z,16.75
2023-03-31T14:40:18.785Z,17.75
2023-03-31T14:44:36.687Z,18.10
2023-03-31T14:48:55.199Z,18.16
2023-03-31T14:53:26.112Z,18.26
2023-03-31T14:57:44.173Z,18.50
2023-03-31T15:02:01.678Z,18.48
2023-03-31T15:06:19.911Z,18.42
2023-03-31T15:10:50.298Z,18.44
2023-03-31T15:15:07.422Z,18.71
2023-03-31T15:19:34.092Z,18.92
2023-03-31T15:23:54.001Z,19.34
2023-03-31T15:28:13.782Z,19.45
2023-03-31T15:32:40.439Z,19.52
2023-03-31T15:36:57.816Z,19.67
2023-03-31T15:41:17.148Z,19.57
2023-03-31T15:45:47.105Z,19.24
2023-03-31T15:50:13.184Z,19.46
2023-03-31T15:54:35.174Z,19.31
2023-03-31T15:59:03.418Z,18.99
2023-03-31T16:03:40.733Z,19.02
2023-03-31T16:07:57.806Z,18.75
2023-03-31T16:12:24.962Z,18.66
2023-03-31T16:16:46.004Z,18.60
2023-03-31T16:21:04.213Z,18.30
2023-03-31T16:25:23.151Z,18.13
2023-03-31T16:29:39.545Z,17.21
2023-03-31T16:33:57.310Z,17.47
2023-03-31T16:38:16.639Z,17.01
2023-03-31T16:46:49.569Z,15.79
2023-03-31T16:51:06.133Z,15.74
2023-03-31T16:55:23.414Z,16.08
2023-03-31T16:59:39.949Z,16.04
2023-03-31T17:03:56.696Z,15.56
2023-03-31T17:08:13.976Z,14.90
2023-03-31T17:12:30.368Z,15.63
2023-03-31T17:16:48.867Z,15.26
2023-03-31T17:21:11.133Z,15.01
2023-03-31T17:25:27.700Z,14.66
2023-03-31T17:29:44.034Z,15.01
2023-03-31T17:34:00.321Z,14.83
2023-03-31T17:38:19.514Z,14.72
2023-03-31T17:42:37.724Z,15.09
2023-03-31T17:46:53.885Z,15.17
2023-03-31T17:51:17.443Z,14.88
2023-03-31T17:55:35.127Z,14.79
2023-03-31T17:59:51.665Z,14.78
2023-03-31T18:04:08.133Z,15.07
2023-03-31T18:08:24.461Z,15.15
2023-03-31T18:12:41.422Z,15.18
2023-03-31T18:16:58.165Z,15.27
2023-03-31T18:21:14.904Z,14.84
2023-03-31T18:25:31.185Z,15.05
2023-03-31T18:29:47.692Z,14.73
2023-03-31T18:34:03.932Z,14.52
2023-03-31T18:38:20.224Z,14.03
2023-03-31T18:42:37.107Z,14.17
2023-03-31T18:46:53.307Z,13.81
2023-03-31T18:51:09.842Z,13.48
2023-03-31T18:55:26.185Z,13.12
2023-03-31T18:59:42.561Z,13.55
2023-03-31T19:03:58.942Z,12.84
2023-03-31T19:08:15.199Z,12.68
2023-03-31T19:12:31.398Z,12.92
2023-03-31T19:16:47.775Z,12.80
2023-03-31T19:21:05.003Z,13.01
2023-03-31T19:25:21.922Z,12.98
2023-03-31T19:29:40.193Z,12.43
2023-03-31T19:33:58.253Z,12.12
2023-03-31T19:38:15.070Z,12.71
2023-03-31T19:42:34.904Z,12.80
2023-03-31T19:46:51.127Z,12.98
2023-03-31T19:51:09.858Z,12.35
2023-03-31T19:55:26.085Z,12.09
2023-03-31T19:59:42.329Z,12.30
2023-03-31T20:03:58.861Z,12.46
2023-03-31T20:08:15.926Z,12.17
2023-03-31T20:12:32.528Z,12.20
2023-03-31T20:16:51.050Z,12.28
2023-03-31T20:21:13.457Z,12.31
2023-03-31T20:25:29.920Z,12.17
2023-03-31T20:29:46.616Z,12.70
2023-03-31T20:34:02.951Z,12.63
2023-03-31T20:38:19.139Z,12.25
2023-03-31T20:42:36.097Z,12.25
2023-03-31T20:46:52.666Z,12.51
2023-03-31T20:51:11.123Z,12.43
2023-03-31T20:55:28.421Z,11.90
2023-03-31T20:59:44.664Z,12.09
2023-03-31T21:04:02.259Z,11.90
2023-03-31T21:08:18.551Z,11.73
2023-03-31T21:12:34.869Z,11.80
2023-03-31T21:16:51.200Z,12.17
2023-03-31T21:21:10.500Z,12.49
2023-03-31T21:25:27.376Z,12.73
2023-03-31T21:29:43.532Z,12.68
2023-03-31T21:34:01.526Z,12.79
2023-03-31T21:38:18.167Z,13.00
2023-03-31T21:42:35.332Z,12.95
2023-03-31T21:46:52.188Z,12.94
2023-03-31T21:51:08.693Z,13.02
2023-03-31T21:55:24.847Z,12.95
2023-03-31T21:59:41.328Z,12.68
2023-03-31T22:03:58.331Z,12.54
2023-03-31T22:08:14.509Z,12.64
2023-03-31T22:12:31.450Z,12.72
2023-03-31T22:16:47.953Z,12.76
2023-03-31T22:21:13.084Z,12.80
2023-03-31T22:25:30.433Z,12.85
2023-03-31T22:29:46.873Z,12.79
2023-03-31T22:34:03.182Z,12.87
2023-03-31T22:38:19.489Z,12.59
2023-03-31T22:42:35.758Z,12.36
2023-03-31T22:46:51.951Z,12.61
2023-03-31T22:51:09.068Z,12.56
2023-03-31T22:55:25.302Z,12.84
2023-03-31T22:59:41.893Z,12.52
2023-03-31T23:03:58.197Z,12.67
2023-03-31T23:08:14.428Z,12.69
2023-03-31T23:12:30.721Z,12.80
2023-03-31T23:16:47.148Z,12.58
2023-03-31T23:21:07.422Z,12.80
2023-03-31T23:25:23.647Z,12.70
2023-03-31T23:29:39.957Z,12.59
2023-03-31T23:33:57.249Z,12.38
2023-03-31T23:38:13.544Z,12.52
2023-03-31T23:42:29.878Z,12.57
2023-03-31T23:46:46.375Z,12.27
2023-03-31T23:51:03.171Z,12.36
2023-03-31T23:55:19.453Z,11.95
2023-03-31T23:59:36.119Z,11.38
